Latest Coastal Weather Observations for Hobart

IDT60701

Issued at 4:05 pm EDT Thursday 23 October 2014 (issued every 10 minutes, with the page automatically refreshed every 10 minutes)

About coastal observations | Map of coastal stations | Coastal observations for TAS | Marine services | Other Formats
Station Details ID: 094029 Name: HOBART (ELLERSLIE ROAD) Lat: -42.89 Lon: 147.33 Height: 50.5 m
Data from the previous 72 hours. | See also: Recent months at Hobart
Date/Time
EDT
Temp

°C
Wind Pressure Rain
since 9am
mm
Weather Cloud Vis
km
Sea
Height
m
Swell
Dir
 
Speed
knots
Gust
knots
hPa Trend Height
m
Period
s
Dir
23/04:00pm 14.5 ESE 9 12 1025.0 - 0.0 - - - - - - -
23/03:30pm 14.5 ESE 10 12 1025.0 - 0.0 - - - - - - -
23/03:00pm 14.3 SE 9 11 1025.1 - 0.0 - - - - - - -
23/02:30pm 15.0 SE 10 13 1025.4 - 0.0 - - - - - - -
23/02:00pm 14.8 SE 9 13 1025.5 - 0.0 - - - - - - -
23/01:30pm 14.1 SE 9 12 1025.6 - 0.0 - - - - - - -
23/01:00pm 14.0 SE 9 12 1025.7 - 0.0 - - - - - - -
23/12:30pm 13.7 SSE 8 12 1025.9 - 0.0 - - - - - - -
23/12:00pm 13.5 ESE 11 16 1026.2 - 0.0 - - - - - - -
23/11:30am 12.7 ESE 9 12 1026.5 - 0.0 - - - - - - -
23/11:00am 12.5 SE 9 12 1026.7 - 0.0 - - - - - - -
23/10:30am 11.9 SSE 8 12 1026.6 - 0.0 - - - - - - -
23/10:00am 11.9 S 9 13 1026.6 - 0.0 - - - - - - -
23/09:30am 11.6 S 11 17 1026.4 - 0.0 - - - - - - -
23/09:00am 11.3 SSE 10 14 1026.3 - 0.0 - - - - - - -
23/08:30am 11.4 SE 11 15 1026.0 - 0.0 - - - - - - -
23/08:00am 11.5 SE 13 18 1025.7 - 0.0 - - - - - - -
23/07:30am 11.2 S 12 18 1025.2 - 0.0 - - - - - - -
23/07:00am 11.0 SSE 7 12 1024.7 - 0.0 - - - - - - -
23/06:30am 10.9 S 6 11 1024.2 - 0.0 - - - - - - -
23/06:00am 10.8 S 7 13 1023.6 - 0.0 - - - - - - -
23/05:30am 10.8 S 9 15 1023.1 - 0.0 - - - - - - -
23/05:00am 10.7 S 8 12 1022.6 - 0.0 - - - - - - -
23/04:30am 10.8 SSE 8 14 1022.5 - 0.0 - - - - - - -
23/04:00am 11.1 SE 10 15 1022.2 - 0.0 - - - - - - -
23/03:30am 11.3 S 9 13 1021.9 - 0.0 - - - - - - -
23/03:00am 11.4 S 9 16 1021.8 - 0.0 - - - - - - -
23/02:30am 11.7 S 12 21 1021.7 - 0.0 - - - - - - -
23/02:00am 11.8 S 10 17 1021.3 - 0.0 - - - - - - -
23/01:30am 12.4 SSW 15 22 1021.2 - 0.0 - - - - - - -
23/01:00am 13.0 S 15 21 1021.1 - 0.0 - - - - - - -
23/12:41am 13.4 S 15 25 1020.9 - 0.0 - - - - - - -
23/12:30am 13.8 SSW 14 21 1020.8 - 0.0 - - - - - - -
23/12:00am 14.0 SSW 15 23 1020.3 - 0.0 - - - - - - -
 
Date/Time
EDT
Temp

°C
Wind Pressure Rain
since 9am
mm
Weather Cloud Vis
km
Sea
Height
m
Swell
Dir
 
Speed
knots
Gust
knots
hPa Trend Height
m
Period
s
Dir
22/11:30pm 14.1 S 14 20 1020.0 - 0.0 - - - - - - -
22/11:00pm 14.1 SSW 15 24 1019.4 - 0.0 - - - - - - -
22/10:30pm 14.6 SSW 15 21 1018.9 - 0.0 - - - - - - -
22/10:00pm 14.3 ENE 4 5 1018.5 - 0.0 - - - - - - -
22/09:30pm 14.0 E 9 13 1018.3 - 0.0 - - - - - - -
22/09:00pm 14.0 ESE 8 11 1017.8 - 0.0 - - - - - - -
22/08:30pm 14.1 ESE 10 14 1017.3 - 0.0 - - - - - - -
22/08:00pm 14.7 ESE 10 13 1016.6 - 0.0 - - - - - - -
22/07:30pm 15.8 SE 7 12 1016.0 - 0.0 - - - - - - -
22/07:00pm 16.9 SSE 7 10 1015.5 - 0.0 - - - - - - -
22/06:30pm 18.0 S 9 13 1014.8 - 0.0 - - - - - - -
22/06:00pm 16.4 ENE 9 14 1014.0 - 0.0 - - - - - - -
22/05:30pm 19.6 SSE 6 8 1014.5 - 0.0 - - - - - - -
22/05:00pm 20.1 SSE 7 11 1013.7 - 0.0 - - - - - - -
22/04:30pm 20.3 ESE 6 10 1013.4 - 0.0 - - - - - - -
22/04:00pm 21.5 ESE 9 14 1013.8 - 0.0 - - - - - - -
22/03:30pm 21.4 ESE 11 15 1013.8 - 0.0 - - - - - - -
22/03:00pm 21.1 ESE 9 13 1013.6 - 0.0 - - - - - - -
22/02:30pm 21.7 ESE 9 12 1013.8 - 0.0 - - - - - - -
22/02:00pm 24.1 E 6 9 1014.0 - 0.0 - - - - - - -
22/01:30pm 25.1 NNW 7 9 1014.6 - 0.0 - - - - - - -
22/01:00pm 24.3 N 10 15 1014.8 - 0.0 - - - - - - -
22/12:30pm 22.7 N 10 13 1015.5 - 0.0 - - - - - - -
22/12:00pm 21.3 NNW 13 18 1016.0 - 0.0 - - - - - - -
22/11:30am 20.7 N 11 16 1016.7 - 0.0 - - - - - - -
22/11:00am 18.7 N 12 19 1017.2 - 0.0 - - - - - - -
22/10:30am 17.6 N 11 17 1017.8 - 0.0 - - - - - - -
22/10:00am 16.7 N 11 17 1018.4 - 0.0 - - - - - - -
22/09:30am 15.0 NNW 12 19 1018.7 - 0.0 - - - - - - -
22/09:00am 14.1 NNW 10 16 1018.9 - 0.0 - - - - - - -
22/08:30am 12.8 NW 8 12 1019.2 - 0.0 - - - - - - -
22/08:00am 13.4 NW 6 11 1019.5 - 0.0 - - - - - - -
22/07:30am 11.0 NW 11 19 1019.5 - 0.0 - - - - - - -
22/07:00am 11.0 NW 7 14 1019.6 - 0.0 - - - - - - -
22/06:30am 10.5 WNW 8 12 1019.9 - 0.0 - - - - - - -
22/06:10am 10.7 N 16 26 1019.7 - 0.0 - - - - - - -
22/06:00am 10.6 N 15 22 1019.6 - 0.0 - - - - - - -
22/05:45am 10.2 N 19 25 1020.0 - 0.0 - - - - - - -
22/05:30am 10.0 N 7 15 1020.2 - 0.0 - - - - - - -
22/05:00am 10.4 N 13 20 1020.6 - 0.0 - - - - - - -
22/04:30am 10.5 NNW 17 23 1020.8 - 0.0 - - - - - - -
22/04:00am 10.9 NNW 17 24 1021.1 - 0.0 - - - - - - -
22/03:30am 11.1 N 15 22 1021.6 - 0.0 - - - - - - -
22/03:00am 11.4 N 12 20 1022.3 - 0.0 - - - - - - -
22/02:30am 11.9 N 16 21 1022.6 - 0.0 - - - - - - -
22/02:00am 11.9 NNW 10 15 1023.3 - 0.0 - - - - - - -
22/01:30am 11.3 N 5 7 1023.7 - 0.0 - - - - - - -
22/01:00am 11.7 N 8 11 1024.1 - 0.0 - - - - - - -
22/12:30am 11.9 NNW 11 14 1024.6 - 0.0 - - - - - - -
22/12:00am 11.6 NNW 7 10 1024.9 - 0.0 - - - - - - -
 
Date/Time
EDT
Temp

°C
Wind Pressure Rain
since 9am
mm
Weather Cloud Vis
km
Sea
Height
m
Swell
Dir
 
Speed
knots
Gust
knots
hPa Trend Height
m
Period
s
Dir
21/11:30pm 12.0 N 7 10 1025.3 - 0.0 - - - - - - -
21/11:00pm 11.2 NW 3 6 1025.7 - 0.0 - - - - - - -
21/10:30pm 11.5 WSW 5 6 1026.0 - 0.0 - - - - - - -
21/10:00pm 11.8 SW 5 6 1026.4 - 0.0 - - - - - - -
21/09:30pm 12.2 WSW 5 6 1026.8 - 0.0 - - - - - - -
21/09:00pm 12.7 WSW 5 6 1026.9 - 0.0 - - - - - - -
21/08:30pm 13.3 SW 5 7 1026.8 - 0.0 - - - - - - -
21/08:00pm 14.5 S 4 7 1026.9 - 0.0 - - - - - - -
21/07:30pm 15.0 S 9 11 1026.9 - 0.0 - - - - - - -
21/07:00pm 15.4 S 8 11 1026.9 - 0.0 - - - - - - -
21/06:30pm 16.1 SSE 8 14 1027.1 - 0.0 - - - - - - -
21/06:00pm 16.9 SE 10 14 1027.2 - 0.0 - - - - - - -
21/05:30pm 16.7 SE 13 17 1027.4 - 0.0 - - - - - - -
21/05:00pm 17.3 SE 11 15 1027.4 - 0.0 - - - - - - -
21/04:30pm 17.5 SE 10 15 1027.7 - 0.0 - - - - - - -
21/04:00pm 17.9 SE 11 13 1028.2 - 0.0 - - - - - - -
21/03:30pm 18.1 ESE 10 11 1028.5 - 0.0 - - - - - - -
21/03:00pm 18.6 ESE 7 9 1029.0 - 0.0 - - - - - - -
21/02:30pm 18.5 ESE 7 10 1029.6 - 0.0 - - - - - - -
21/02:00pm 18.5 ENE 6 10 1030.2 - 0.0 - - - - - - -
21/01:30pm 18.8 N 7 13 1030.7 - 0.0 - - - - - - -
21/01:00pm 18.0 NNW 7 12 1031.1 - 0.0 - - - - - - -
21/12:30pm 17.9 N 7 12 1031.5 - 0.0 - - - - - - -
21/12:00pm 17.4 NNW 7 13 1031.9 - 0.0 - - - - - - -
21/11:30am 16.3 NNW 8 15 1032.3 - 0.0 - - - - - - -
21/11:00am 15.6 NNW 9 12 1032.8 - 0.0 - - - - - - -
21/10:30am 14.8 NNW 8 12 1033.2 - 0.0 - - - - - - -
21/10:00am 13.4 NNW 10 15 1033.4 - 0.0 - - - - - - -
21/09:30am 12.0 NNW 10 13 1033.7 - 0.0 - - - - - - -
21/09:00am 10.4 NNW 10 14 1033.8 - 0.2 - - - - - - -
21/08:30am 8.8 NW 9 12 1034.0 - 0.2 - - - - - - -
21/08:00am 7.5 NNW 9 13 1034.0 - 0.2 - - - - - - -
21/07:30am 6.2 NW 8 11 1033.7 - 0.2 - - - - - - -
21/07:00am 5.7 NW 13 17 1033.6 - 0.2 - - - - - - -
21/06:30am 5.2 NW 10 13 1033.5 - 0.2 - - - - - - -
21/06:00am 5.5 NW 9 13 1033.3 - 0.2 - - - - - - -
21/05:30am 5.3 NW 7 10 1033.3 - 0.2 - - - - - - -
21/05:00am 5.6 NW 8 11 1033.0 - 0.2 - - - - - - -
21/04:30am 5.9 NNW 8 10 1033.0 - 0.2 - - - - - - -
21/04:00am 6.3 NNW 8 11 1033.1 - 0.2 - - - - - - -
21/03:30am 6.9 N 6 8 1033.1 - 0.2 - - - - - - -
21/03:00am 7.0 N 5 7 1033.3 - 0.2 - - - - - - -
21/02:30am 7.2 N 4 5 1033.5 - 0.2 - - - - - - -
21/02:00am 7.7 NNW 4 6 1033.7 - 0.2 - - - - - - -
21/01:30am 8.4 NNW 6 8 1033.8 - 0.2 - - - - - - -
21/01:00am 9.1 N 6 9 1034.2 - 0.2 - - - - - - -
21/12:30am 9.7 N 5 8 1034.6 - 0.2 - - - - - - -
21/12:00am 10.0 NNE 5 7 1034.7 - 0.2 - - - - - - -
 
Date/Time
EDT
Temp

°C
Wind Pressure Rain
since 9am
mm
Weather Cloud Vis
km
Sea
Height
m
Swell
Dir
 
Speed
knots
Gust
knots
hPa Trend Height
m
Period
s
Dir
20/11:30pm 9.9 NNE 6 7 1035.0 - 0.2 - - - - - - -
20/11:00pm 10.1 NE 5 7 1035.5 - 0.2 - - - - - - -
20/10:30pm 10.1 E 4 6 1035.6 - 0.2 - - - - - - -
20/10:00pm 10.2 ESE 6 8 1035.7 - 0.2 - - - - - - -
20/09:30pm 10.1 ESE 6 9 1035.6 - 0.2 - - - - - - -
20/09:00pm 10.1 SE 6 9 1035.5 - 0.2 - - - - - - -
20/08:30pm 9.8 S 7 9 1035.2 - 0.2 - - - - - - -
20/08:00pm 10.0 SSE 7 10 1034.9 - 0.2 - - - - - - -
20/07:30pm 10.1 SSE 9 13 1034.6 - 0.2 - - - - - - -
20/07:00pm 10.5 SSE 8 12 1034.4 - 0.2 - - - - - - -
20/06:30pm 10.8 SSE 10 14 1034.0 - 0.2 - - - - - - -
20/06:00pm 11.3 S 10 13 1033.7 - 0.2 - - - - - - -
20/05:30pm 11.3 SSE 11 15 1033.8 - 0.2 - - - - - - -
20/05:00pm 11.8 SSE 11 16 1033.7 - 0.2 - - - - - - -
20/04:30pm 12.4 SE 10 14 1033.7 - 0.2 - - - - - - -

Other Formats:

Comma delimited format used in spreadsheet applications
http://www.bom.gov.au/fwo/IDT60701/IDT60701.94970.axf

JavaScript Object Notation format (JSON) in row-major order
http://www.bom.gov.au/fwo/IDT60701/IDT60701.94970.json